createdAt,value
2019-03-27T00:02:12.720Z,10.30
2019-03-27T00:04:38.988Z,9.10
2019-03-27T00:07:05.189Z,10.93
2019-03-27T00:09:31.348Z,11.03
2019-03-27T00:11:57.620Z,11.23
2019-03-27T00:14:23.809Z,11.67
2019-03-27T00:16:49.979Z,10.27
2019-03-27T00:19:16.143Z,9.30
2019-03-27T00:21:42.348Z,9.30
2019-03-27T00:24:08.518Z,9.13
2019-03-27T00:26:34.686Z,9.30
2019-03-27T00:29:00.990Z,8.83
2019-03-27T00:31:27.159Z,8.90
2019-03-27T00:33:53.323Z,9.40
2019-03-27T00:36:19.618Z,8.47
2019-03-27T00:38:45.775Z,7.77
2019-03-27T00:41:12.040Z,8.53
2019-03-27T00:43:38.234Z,8.97
2019-03-27T00:46:04.515Z,9.23
2019-03-27T00:48:30.675Z,9.43
2019-03-27T00:50:56.975Z,9.17
2019-03-27T00:53:23.139Z,9.70
2019-03-27T00:55:49.291Z,9.70
2019-03-27T00:58:15.502Z,9.93
2019-03-27T01:00:45.262Z,9.97
2019-03-27T01:03:11.539Z,11.13
2019-03-27T01:05:37.830Z,13.63
2019-03-27T01:08:04.091Z,13.43
2019-03-27T01:10:30.357Z,15.10
2019-03-27T01:12:56.551Z,15.50
2019-03-27T01:15:22.714Z,15.03
2019-03-27T01:17:48.875Z,15.17
2019-03-27T01:20:15.076Z,13.43
2019-03-27T01:22:41.246Z,13.03
2019-03-27T01:25:08.411Z,13.67
2019-03-27T01:27:35.738Z,14.37
2019-03-27T01:30:03.075Z,13.83
2019-03-27T01:32:29.241Z,14.03
2019-03-27T01:34:55.546Z,13.47
2019-03-27T01:37:21.708Z,13.93
2019-03-27T01:39:47.976Z,13.80
2019-03-27T01:42:14.173Z,15.20
2019-03-27T01:44:40.334Z,14.40
2019-03-27T01:47:06.497Z,13.47
2019-03-27T01:49:32.802Z,13.67
2019-03-27T01:51:58.977Z,14.07
2019-03-27T01:54:25.148Z,14.33
2019-03-27T01:56:51.337Z,13.27
2019-03-27T01:59:17.552Z,14.50
2019-03-27T02:01:43.829Z,13.77
2019-03-27T02:04:10.037Z,14.67
2019-03-27T02:06:36.211Z,14.53
2019-03-27T02:09:03.873Z,15.30
2019-03-27T02:11:30.072Z,15.07
2019-03-27T02:13:56.335Z,15.50
2019-03-27T02:16:22.664Z,15.83
2019-03-27T02:18:48.854Z,14.37
2019-03-27T02:21:15.022Z,15.20
2019-03-27T02:23:41.290Z,15.87
2019-03-27T02:26:07.482Z,15.23
2019-03-27T02:28:33.748Z,13.17
2019-03-27T02:30:59.915Z,15.43
2019-03-27T02:33:26.099Z,16.37
2019-03-27T02:35:52.261Z,15.60
2019-03-27T02:38:18.434Z,15.90
2019-03-27T02:40:44.642Z,15.83
2019-03-27T02:43:10.906Z,15.90
2019-03-27T02:45:37.071Z,16.27
2019-03-27T02:48:03.289Z,16.50
2019-03-27T02:50:29.445Z,16.10
2019-03-27T02:52:55.611Z,15.43
2019-03-27T02:55:21.815Z,16.03
2019-03-27T02:57:47.984Z,15.83
2019-03-27T03:00:14.899Z,16.50
2019-03-27T03:02:41.198Z,16.37
2019-03-27T03:05:08.162Z,16.13
2019-03-27T03:07:35.429Z,16.50
2019-03-27T03:10:01.933Z,16.27
2019-03-27T03:12:28.090Z,16.47
2019-03-27T03:14:54.256Z,16.47
2019-03-27T03:17:20.456Z,17.03
2019-03-27T03:19:46.633Z,16.97
2019-03-27T03:22:12.862Z,16.60
2019-03-27T03:24:39.185Z,16.57
2019-03-27T03:27:05.356Z,11.87
2019-03-27T03:29:31.515Z,15.03
2019-03-27T03:31:57.725Z,16.50
2019-03-27T03:34:23.883Z,17.90
2019-03-27T03:36:50.046Z,15.53
2019-03-27T03:39:16.234Z,12.67
2019-03-27T03:41:42.597Z,16.50
2019-03-27T03:44:08.854Z,16.10
2019-03-27T03:46:35.053Z,17.90
2019-03-27T03:49:01.213Z,18.80
2019-03-27T03:51:27.787Z,18.13
2019-03-27T03:53:54.292Z,14.73
2019-03-27T03:56:22.056Z,19.27
2019-03-27T03:58:49.310Z,18.03
2019-03-27T04:01:18.470Z,18.13
2019-03-27T04:03:46.842Z,17.30
2019-03-27T04:06:13.105Z,16.20
2019-03-27T04:08:39.298Z,17.53
2019-03-27T04:11:05.467Z,15.47
2019-03-27T04:13:31.620Z,13.50
2019-03-27T04:15:57.925Z,18.80
2019-03-27T04:18:24.086Z,15.93
2019-03-27T04:20:50.271Z,17.70
2019-03-27T04:23:16.445Z,15.07
2019-03-27T04:26:07.050Z,17.13
2019-03-27T04:28:10.672Z,17.90
2019-03-27T04:30:36.873Z,16.17
2019-03-27T04:33:03.137Z,18.73
2019-03-27T04:35:29.298Z,17.03
2019-03-27T04:37:55.506Z,17.60
2019-03-27T04:40:21.683Z,18.23
2019-03-27T04:42:47.856Z,16.87
2019-03-27T04:45:15.665Z,21.00
2019-03-27T04:47:41.825Z,18.43
2019-03-27T04:50:08.084Z,16.70
2019-03-27T04:52:34.291Z,14.77
2019-03-27T04:55:00.449Z,18.63
2019-03-27T04:57:26.729Z,17.60
2019-03-27T04:59:52.939Z,19.17
2019-03-27T05:02:20.159Z,17.83
2019-03-27T05:04:46.420Z,17.30
2019-03-27T05:07:13.827Z,16.23
2019-03-27T05:09:40.281Z,18.40
2019-03-27T05:12:06.448Z,16.93
2019-03-27T05:14:32.643Z,17.10
2019-03-27T05:16:58.800Z,16.83
2019-03-27T05:19:25.146Z,16.63
2019-03-27T05:21:51.689Z,16.30
2019-03-27T05:24:17.871Z,15.10
2019-03-27T05:26:44.042Z,15.77
2019-03-27T05:29:10.293Z,13.73
2019-03-27T05:31:36.492Z,14.77
2019-03-27T05:34:02.662Z,15.77
2019-03-27T05:36:28.862Z,16.87
2019-03-27T05:38:55.035Z,13.53
2019-03-27T05:41:21.197Z,15.90
2019-03-27T05:43:47.399Z,15.27
2019-03-27T05:46:13.574Z,14.47
2019-03-27T05:48:39.846Z,16.77
2019-03-27T05:51:06.272Z,16.10
2019-03-27T05:53:32.533Z,15.33
2019-03-27T05:55:58.728Z,14.90
2019-03-27T05:58:24.924Z,17.33
2019-03-27T06:00:51.096Z,15.87
2019-03-27T06:03:18.588Z,17.37
2019-03-27T06:05:44.830Z,16.23
2019-03-27T06:08:10.993Z,9.57
2019-03-27T06:10:37.155Z,15.10
2019-03-27T06:13:03.363Z,12.07
2019-03-27T06:15:29.618Z,10.97
2019-03-27T06:17:55.791Z,14.03
2019-03-27T06:20:21.983Z,14.10
2019-03-27T06:22:48.156Z,12.77
2019-03-27T06:25:15.548Z,11.73
2019-03-27T06:27:41.898Z,13.17
2019-03-27T06:30:08.776Z,11.17
2019-03-27T06:32:35.337Z,12.10
2019-03-27T06:35:01.554Z,12.37
2019-03-27T06:37:27.729Z,11.10
2019-03-27T06:39:53.990Z,11.57
2019-03-27T06:42:20.179Z,10.77
2019-03-27T06:44:46.364Z,11.40
2019-03-27T06:47:12.684Z,9.93
2019-03-27T06:49:38.885Z,10.53
2019-03-27T06:52:05.047Z,6.83
2019-03-27T06:54:31.227Z,11.07
2019-03-27T06:56:57.431Z,13.40
2019-03-27T06:59:23.602Z,10.63
2019-03-27T07:01:49.771Z,11.47
2019-03-27T07:04:16.119Z,8.77
2019-03-27T07:06:42.289Z,7.70
2019-03-27T07:09:08.452Z,9.97
2019-03-27T07:11:34.671Z,11.57
2019-03-27T07:14:00.818Z,11.63
2019-03-27T07:16:26.990Z,9.57
2019-03-27T07:18:53.293Z,9.60
2019-03-27T07:21:19.467Z,13.20
2019-03-27T07:23:45.628Z,11.30
2019-03-27T07:26:11.823Z,5.63
2019-03-27T07:28:37.993Z,9.10
2019-03-27T07:31:05.113Z,10.07
2019-03-27T07:33:31.325Z,10.33
2019-03-27T07:35:57.483Z,9.53
2019-03-27T07:38:23.750Z,7.83
2019-03-27T07:40:49.952Z,9.43
2019-03-27T07:43:16.112Z,9.60
2019-03-27T07:45:42.280Z,7.47
2019-03-27T07:48:08.477Z,7.63
2019-03-27T07:50:35.024Z,8.07
2019-03-27T07:53:01.190Z,9.77
2019-03-27T07:55:27.584Z,6.03
2019-03-27T07:57:53.734Z,8.43
2019-03-27T08:00:21.708Z,9.27
2019-03-27T08:02:48.000Z,6.33
2019-03-27T08:05:14.212Z,10.13
2019-03-27T08:07:40.386Z,10.80
2019-03-27T08:10:06.773Z,11.77
2019-03-27T08:12:32.944Z,8.83
2019-03-27T08:14:59.108Z,10.83
2019-03-27T08:17:25.403Z,10.00
2019-03-27T08:19:51.682Z,6.77
2019-03-27T08:22:17.844Z,5.87
2019-03-27T08:24:44.140Z,10.03
2019-03-27T08:27:19.250Z,8.57
2019-03-27T08:29:45.407Z,11.00
2019-03-27T08:32:11.703Z,6.83
2019-03-27T08:34:37.866Z,10.87
2019-03-27T08:37:04.132Z,11.00
2019-03-27T08:39:30.333Z,11.20
2019-03-27T08:41:56.520Z,10.97
2019-03-27T08:44:22.689Z,10.97
2019-03-27T08:46:48.885Z,11.60
2019-03-27T08:49:21.889Z,11.20
2019-03-27T08:51:43.095Z,10.20
2019-03-27T08:54:09.282Z,9.00
2019-03-27T08:56:35.444Z,6.40
2019-03-27T08:59:01.602Z,6.33
2019-03-27T09:01:27.808Z,11.97
2019-03-27T09:03:54.028Z,9.43
2019-03-27T09:06:32.988Z,11.70
2019-03-27T09:08:48.598Z,9.23
2019-03-27T09:11:14.766Z,10.10
2019-03-27T09:13:40.931Z,9.90
2019-03-27T09:16:07.118Z,10.93
2019-03-27T09:18:33.281Z,9.10
2019-03-27T09:20:59.532Z,10.37
2019-03-27T09:23:25.937Z,11.47
2019-03-27T09:25:52.204Z,6.93
2019-03-27T09:28:18.363Z,8.50
2019-03-27T09:30:44.562Z,6.73
2019-03-27T09:33:10.718Z,9.97
2019-03-27T09:35:36.885Z,8.57
2019-03-27T09:38:03.192Z,8.57
2019-03-27T09:40:29.364Z,8.87
2019-03-27T09:42:55.641Z,9.27
2019-03-27T09:45:21.837Z,9.60
2019-03-27T09:47:48.104Z,7.93
2019-03-27T09:50:14.256Z,9.33
2019-03-27T09:52:40.553Z,7.27
2019-03-27T09:55:07.117Z,8.83
2019-03-27T09:57:33.285Z,8.50
2019-03-27T09:59:59.494Z,9.33
2019-03-27T10:02:25.777Z,7.13
2019-03-27T10:04:51.931Z,6.10
2019-03-27T10:07:18.171Z,7.17
2019-03-27T10:09:44.437Z,9.47
2019-03-27T10:12:10.597Z,10.13
2019-03-27T10:14:36.800Z,9.67
2019-03-27T10:17:02.986Z,8.30
2019-03-27T10:19:29.124Z,10.37
2019-03-27T10:21:55.334Z,8.50
2019-03-27T10:24:21.607Z,9.13
2019-03-27T10:26:47.772Z,9.13
2019-03-27T10:29:13.958Z,6.37
2019-03-27T10:31:40.631Z,8.07
2019-03-27T10:34:06.786Z,7.70
2019-03-27T10:36:32.997Z,8.13
2019-03-27T10:38:59.161Z,8.77
2019-03-27T10:41:25.322Z,10.67
2019-03-27T10:43:51.513Z,8.27
2019-03-27T10:46:17.809Z,7.63
2019-03-27T10:48:52.423Z,9.57
2019-03-27T10:51:12.068Z,5.73
2019-03-27T10:53:38.250Z,8.60
2019-03-27T10:56:04.509Z,8.13
2019-03-27T10:58:30.816Z,8.63
2019-03-27T11:00:56.974Z,8.37
2019-03-27T11:03:23.297Z,7.80
2019-03-27T11:05:49.602Z,6.10
2019-03-27T11:08:15.827Z,7.67
2019-03-27T11:10:41.989Z,6.17
2019-03-27T11:13:08.292Z,8.40
2019-03-27T11:15:34.561Z,8.20
2019-03-27T11:18:00.720Z,6.53
2019-03-27T11:20:31.101Z,6.57
2019-03-27T11:22:54.981Z,7.60
2019-03-27T11:25:21.144Z,9.23
2019-03-27T11:27:47.352Z,8.93
2019-03-27T11:30:13.809Z,6.60
2019-03-27T11:32:39.971Z,6.00
2019-03-27T11:35:06.383Z,7.13
2019-03-27T11:37:32.546Z,11.00
2019-03-27T11:39:58.707Z,10.27
2019-03-27T11:42:24.896Z,10.93
2019-03-27T11:44:51.063Z,10.23
2019-03-27T11:47:17.228Z,4.80
2019-03-27T11:49:43.426Z,5.40
2019-03-27T11:52:09.591Z,5.70
2019-03-27T11:54:35.755Z,4.77
2019-03-27T11:57:01.958Z,3.97
2019-03-27T11:59:28.218Z,5.10
2019-03-27T12:01:54.374Z,4.60
2019-03-27T12:04:20.615Z,2.93
2019-03-27T12:06:46.877Z,5.33
2019-03-27T12:09:13.117Z,5.00
2019-03-27T12:11:39.410Z,4.00
2019-03-27T12:14:05.698Z,4.13
2019-03-27T12:16:33.680Z,4.47
2019-03-27T12:19:01.720Z,3.03
2019-03-27T12:21:27.876Z,3.83
2019-03-27T12:23:54.036Z,4.60
2019-03-27T12:26:20.332Z,4.30
2019-03-27T12:28:46.487Z,4.13
2019-03-27T12:31:12.644Z,3.43
2019-03-27T12:33:38.849Z,3.40
2019-03-27T12:36:05.008Z,4.27
2019-03-27T12:38:31.291Z,4.10
2019-03-27T12:40:57.497Z,3.63
2019-03-27T12:43:23.766Z,4.17
2019-03-27T12:45:50.021Z,4.07
2019-03-27T12:48:16.205Z,3.30
2019-03-27T12:50:44.288Z,3.63
2019-03-27T12:53:10.524Z,3.87
2019-03-27T12:55:36.739Z,2.43
2019-03-27T12:58:03.703Z,3.60
2019-03-27T13:00:30.480Z,3.83
2019-03-27T13:02:56.967Z,4.13
2019-03-27T13:05:23.139Z,3.70
2019-03-27T13:07:50.461Z,3.90
2019-03-27T13:10:16.940Z,3.93
2019-03-27T13:12:43.127Z,3.80
2019-03-27T13:15:09.390Z,4.00
2019-03-27T13:17:35.589Z,3.97
2019-03-27T13:20:02.248Z,3.40
2019-03-27T13:22:28.518Z,3.63
2019-03-27T13:24:54.705Z,3.37
2019-03-27T13:27:20.861Z,2.23
2019-03-27T13:29:47.444Z,3.37
2019-03-27T13:32:13.648Z,3.80
2019-03-27T13:34:39.794Z,3.00
2019-03-27T13:37:05.958Z,3.60
2019-03-27T13:39:32.152Z,2.83
2019-03-27T13:41:58.821Z,3.63
2019-03-27T13:44:36.388Z,3.77
2019-03-27T13:46:53.217Z,3.63
2019-03-27T13:49:19.548Z,4.33
2019-03-27T13:51:45.819Z,3.57
2019-03-27T13:54:12.303Z,3.33
2019-03-27T13:56:38.473Z,5.20
2019-03-27T13:59:04.639Z,3.40
2019-03-27T14:01:30.944Z,3.40
2019-03-27T14:03:57.217Z,2.97
2019-03-27T14:06:23.379Z,6.17
2019-03-27T14:08:49.571Z,3.60
2019-03-27T14:11:15.835Z,3.80
2019-03-27T14:13:43.599Z,4.03
2019-03-27T14:16:09.978Z,4.03
2019-03-27T14:18:36.149Z,4.53
2019-03-27T14:21:02.408Z,5.40
2019-03-27T14:23:28.710Z,4.93
2019-03-27T14:25:54.873Z,4.23
2019-03-27T14:28:21.031Z,4.50
2019-03-27T14:30:49.020Z,4.60
2019-03-27T14:33:15.185Z,4.90
2019-03-27T14:35:41.348Z,5.23
2019-03-27T14:38:07.641Z,5.63
2019-03-27T14:40:33.799Z,5.40
2019-03-27T14:42:59.966Z,5.50
2019-03-27T14:45:26.165Z,5.30
2019-03-27T14:47:52.423Z,5.40
2019-03-27T14:50:18.592Z,5.93
2019-03-27T14:52:44.794Z,4.73
2019-03-27T14:55:10.958Z,5.23
2019-03-27T14:57:37.530Z,5.20
2019-03-27T15:00:06.651Z,6.80
2019-03-27T15:02:32.911Z,7.37
2019-03-27T15:04:59.324Z,6.70
2019-03-27T15:07:25.621Z,4.90
2019-03-27T15:09:51.775Z,4.97
2019-03-27T15:12:18.009Z,5.03
2019-03-27T15:14:44.301Z,4.20
2019-03-27T15:17:10.573Z,4.63
2019-03-27T15:19:36.845Z,4.23
2019-03-27T15:22:03.034Z,4.47
2019-03-27T15:24:29.299Z,4.83
2019-03-27T15:26:55.458Z,4.50
2019-03-27T15:29:24.357Z,2.77
2019-03-27T15:31:50.515Z,5.17
2019-03-27T15:34:16.679Z,4.00
2019-03-27T15:36:42.967Z,5.20
2019-03-27T15:39:09.220Z,4.00
2019-03-27T15:41:35.377Z,4.30
2019-03-27T15:44:01.681Z,5.33
2019-03-27T15:46:27.948Z,5.27
2019-03-27T15:48:54.206Z,4.90
2019-03-27T15:51:20.410Z,5.57
2019-03-27T15:53:47.487Z,5.90
2019-03-27T15:56:13.856Z,5.73
2019-03-27T15:58:40.049Z,5.73
2019-03-27T16:01:06.810Z,6.70
2019-03-27T16:03:32.979Z,9.90
2019-03-27T16:05:59.268Z,6.73
2019-03-27T16:08:25.429Z,10.20
2019-03-27T16:10:51.586Z,8.57
2019-03-27T16:13:18.657Z,32.07
2019-03-27T16:15:44.807Z,10.00
2019-03-27T16:18:11.063Z,13.47
2019-03-27T16:20:37.360Z,9.53
2019-03-27T16:23:03.626Z,8.13
2019-03-27T16:25:29.785Z,5.30
2019-03-27T16:27:55.999Z,6.47
2019-03-27T16:30:22.254Z,17.00
2019-03-27T16:32:48.428Z,25.93
2019-03-27T16:35:14.641Z,10.90
2019-03-27T16:37:40.792Z,10.80
2019-03-27T16:40:08.044Z,9.90
2019-03-27T16:42:34.330Z,13.30
2019-03-27T16:45:00.502Z,15.47
2019-03-27T16:47:26.769Z,12.53
2019-03-27T16:49:52.960Z,12.13
2019-03-27T16:52:19.147Z,13.13
2019-03-27T16:54:45.305Z,12.13
2019-03-27T16:57:11.496Z,13.60
2019-03-27T16:59:37.771Z,8.70
2019-03-27T17:02:04.661Z,9.60
2019-03-27T17:04:30.958Z,28.90
2019-03-27T17:06:57.112Z,10.23
2019-03-27T17:09:23.267Z,13.03
2019-03-27T17:11:49.814Z,10.70
2019-03-27T17:14:15.983Z,9.13
2019-03-27T17:16:42.551Z,19.47
2019-03-27T17:19:08.739Z,13.23
2019-03-27T17:21:34.904Z,19.27
2019-03-27T17:24:01.077Z,19.37
2019-03-27T17:26:27.385Z,21.37
2019-03-27T17:28:53.649Z,9.90
2019-03-27T17:31:19.802Z,10.70
2019-03-27T17:33:46.006Z,11.63
2019-03-27T17:36:12.168Z,9.13
2019-03-27T17:38:38.336Z,9.53
2019-03-27T17:41:04.538Z,9.63
2019-03-27T17:43:30.699Z,8.47
2019-03-27T17:45:56.851Z,12.27
2019-03-27T17:48:23.067Z,9.17
2019-03-27T17:50:49.228Z,9.37
2019-03-27T17:53:15.502Z,8.57
2019-03-27T17:55:41.702Z,9.00
2019-03-27T17:58:07.870Z,14.30
2019-03-27T18:00:47.007Z,15.23
2019-03-27T18:03:13.204Z,13.53
2019-03-27T18:05:42.460Z,14.27
2019-03-27T18:08:08.666Z,10.33
2019-03-27T18:10:34.831Z,12.07
2019-03-27T18:13:01.011Z,11.17
2019-03-27T18:15:27.297Z,10.17
2019-03-27T18:17:53.469Z,11.77
2019-03-27T18:20:19.646Z,12.30
2019-03-27T18:22:46.259Z,12.57
2019-03-27T18:25:12.429Z,11.40
2019-03-27T18:27:38.603Z,15.07
2019-03-27T18:30:05.804Z,15.83
2019-03-27T18:32:31.980Z,14.33
2019-03-27T18:34:58.152Z,12.47
2019-03-27T18:37:24.349Z,11.33
2019-03-27T18:39:50.521Z,10.20
2019-03-27T18:42:16.693Z,9.30
2019-03-27T18:44:42.983Z,9.50
2019-03-27T18:47:09.252Z,8.30
2019-03-27T18:49:35.444Z,7.80
2019-03-27T18:52:01.773Z,9.87
2019-03-27T18:54:28.031Z,6.20
2019-03-27T18:56:54.191Z,6.47
2019-03-27T18:59:20.483Z,6.60
2019-03-27T19:01:46.645Z,7.50
2019-03-27T19:04:13.003Z,6.80
2019-03-27T19:06:39.213Z,6.97
2019-03-27T19:09:07.295Z,5.07
2019-03-27T19:11:33.552Z,8.60
2019-03-27T19:13:59.866Z,7.10
2019-03-27T19:16:26.029Z,15.07
2019-03-27T19:18:52.186Z,17.20
2019-03-27T19:21:18.383Z,9.80
2019-03-27T19:23:44.543Z,8.77
2019-03-27T19:26:10.705Z,11.87
2019-03-27T19:28:36.906Z,28.67
2019-03-27T19:31:03.693Z,18.83
2019-03-27T19:33:29.943Z,17.83
2019-03-27T19:35:56.169Z,15.00
2019-03-27T19:38:22.337Z,17.93
2019-03-27T19:40:48.498Z,13.23
2019-03-27T19:43:14.697Z,11.57
2019-03-27T19:45:41.075Z,11.13
2019-03-27T19:48:07.240Z,15.30
2019-03-27T19:50:33.430Z,13.83
2019-03-27T19:52:59.594Z,12.17
2019-03-27T19:55:25.757Z,17.17
2019-03-27T19:57:51.972Z,17.63
2019-03-27T20:00:19.636Z,9.00
2019-03-27T20:02:45.797Z,11.07
2019-03-27T20:05:12.293Z,12.27
2019-03-27T20:07:38.460Z,13.53
2019-03-27T20:10:06.154Z,12.87
2019-03-27T20:12:32.347Z,11.87
2019-03-27T20:15:11.116Z,10.87
2019-03-27T20:17:26.729Z,12.93
2019-03-27T20:19:52.933Z,13.50
2019-03-27T20:22:19.098Z,14.03
2019-03-27T20:24:45.258Z,56.50
2019-03-27T20:27:11.446Z,40.20
2019-03-27T20:29:37.716Z,30.57
2019-03-27T20:32:03.878Z,26.50
2019-03-27T20:34:30.085Z,24.40
2019-03-27T20:36:56.251Z,26.90
2019-03-27T20:39:22.409Z,13.37
2019-03-27T20:41:48.610Z,14.80
2019-03-27T20:44:14.770Z,14.07
2019-03-27T20:46:40.938Z,12.47
2019-03-27T20:49:07.120Z,11.77
2019-03-27T20:51:33.279Z,10.13
2019-03-27T20:54:01.406Z,14.00
2019-03-27T20:56:27.645Z,19.07
2019-03-27T20:58:53.807Z,21.23
2019-03-27T21:01:19.981Z,75.73
2019-03-27T21:03:46.294Z,20.97
2019-03-27T21:06:12.784Z,19.57
2019-03-27T21:08:39.045Z,20.03
2019-03-27T21:11:05.242Z,18.63
2019-03-27T21:13:31.398Z,12.23
2019-03-27T21:15:57.569Z,14.00
2019-03-27T21:18:23.923Z,12.00
2019-03-27T21:20:50.080Z,11.10
2019-03-27T21:23:16.230Z,11.00
2019-03-27T21:25:42.427Z,10.30
2019-03-27T21:28:08.594Z,11.70
2019-03-27T21:30:34.853Z,13.73
2019-03-27T21:33:01.046Z,12.90
2019-03-27T21:35:27.194Z,11.67
2019-03-27T21:37:53.349Z,10.83
2019-03-27T21:40:19.653Z,11.20
2019-03-27T21:42:45.819Z,9.97
2019-03-27T21:45:12.175Z,9.67
2019-03-27T21:47:38.481Z,8.87
2019-03-27T21:50:06.050Z,7.80
2019-03-27T21:52:32.209Z,10.77
2019-03-27T21:54:58.404Z,11.53
2019-03-27T21:57:24.632Z,8.00
2019-03-27T21:59:50.905Z,8.83
2019-03-27T22:02:17.258Z,11.03
2019-03-27T22:04:43.444Z,9.33
2019-03-27T22:07:09.597Z,9.67
2019-03-27T22:09:35.912Z,11.03
2019-03-27T22:12:02.068Z,10.70
2019-03-27T22:14:28.226Z,10.43
2019-03-27T22:16:54.420Z,9.50
2019-03-27T22:19:20.622Z,10.13
2019-03-27T22:21:46.884Z,9.50
2019-03-27T22:24:13.208Z,10.97
2019-03-27T22:26:39.479Z,9.73
2019-03-27T22:29:05.658Z,9.37
2019-03-27T22:31:31.847Z,10.50
2019-03-27T22:33:58.065Z,9.10
2019-03-27T22:36:24.335Z,10.30
2019-03-27T22:38:50.516Z,9.67
2019-03-27T22:41:16.671Z,10.03
2019-03-27T22:43:42.852Z,10.17
2019-03-27T22:46:09.011Z,9.83
2019-03-27T22:48:35.174Z,10.77
2019-03-27T22:51:01.328Z,10.30
2019-03-27T22:53:27.522Z,10.10
2019-03-27T22:55:53.682Z,10.43
2019-03-27T22:58:19.944Z,9.67
2019-03-27T23:00:48.430Z,11.33
2019-03-27T23:03:18.658Z,10.20
2019-03-27T23:05:42.959Z,10.77
2019-03-27T23:08:09.243Z,10.93
2019-03-27T23:10:35.490Z,11.00
2019-03-27T23:13:01.654Z,11.07
2019-03-27T23:15:27.853Z,11.63
2019-03-27T23:17:54.122Z,9.30
2019-03-27T23:20:22.044Z,11.17
2019-03-27T23:22:48.221Z,10.47
2019-03-27T23:25:14.374Z,10.67
2019-03-27T23:27:40.541Z,12.13
2019-03-27T23:30:07.939Z,11.13
2019-03-27T23:32:34.098Z,11.40
2019-03-27T23:35:00.459Z,10.73
2019-03-27T23:37:26.782Z,12.20
2019-03-27T23:39:52.934Z,11.80
2019-03-27T23:42:19.195Z,12.23
2019-03-27T23:44:45.387Z,11.87
2019-03-27T23:47:11.551Z,11.93
2019-03-27T23:49:37.700Z,10.70
2019-03-27T23:52:03.882Z,10.43
2019-03-27T23:54:30.057Z,9.90
2019-03-27T23:56:56.212Z,9.53
2019-03-27T23:59:22.508Z,11.10
